Odin — FAC8377 — position and weather

sailwx.info

Track history (hours):
 
Tides and Currents Weather Stations Pressure Air Temp Water Temp Dewpoint Dewpoint Depression Visibility Wind Speed Wind Dir Waves Ship Positions

Odin

Last reported at 2017-Oct-15 11:12 UTC. Time now 2017-Nov-21 19:26 UTC.
Position N 47°18' W 002°57'.
Warning: this ship's position is 37 days out of date.

Length 10 m.

Type: Sailing vessel. MMSI: 227351010.

Date/timePositionNaut miles runAvg speedWind from/ knotsBaromVisibWave heightAir tempDewpointWater temp
2017-Oct-15 11:12N 47°18' W 002°57'1 5.2
2017-Oct-15 10:58N 47°19' W 002°56'3 4.1
2017-Oct-15 10:21N 47°20' W 002°60'2 5.2
2017-Oct-15 10:00N 47°19' W 003°02'2 3.6
2017-Oct-15 09:30N 47°21' W 003°03'3 4.8
2017-Oct-15 08:59N 47°21' W 003°07'1 2.8
2017-Oct-15 08:29N 47°21' W 003°09'0 0.0
2017-Oct-14 14:39N 47°21' W 003°09'0 0.0
2017-Oct-14 14:30N 47°21' W 003°09'17 4.0
2017-Oct-14 10:20N 47°19' W 002°44'2 4.8
2017-Oct-14 09:57N 47°19' W 002°42'1 3.1
2017-Oct-14 09:30N 47°20' W 002°40'2 3.5
2017-Oct-14 08:50N 47°20' W 002°36'1 3.5
2017-Oct-14 08:29N 47°20' W 002°35'  
Track history (hours):
 
Tides and Currents Weather Stations Pressure Air Temp Water Temp Dewpoint Dewpoint Depression Visibility Wind Speed Wind Dir Waves Ship Positions

Odin

Last reported at 2017-Oct-15 11:12 UTC. Time now 2017-Nov-21 19:26 UTC.
Position N 47°18' W 002°57'.
Warning: this ship's position is 37 days out of date.

Length 10 m.

Type: Sailing vessel. MMSI: 227351010.

Date/timePositionNaut miles runAvg speedWind from/ knotsBaromVisibWave heightAir tempDewpointWater temp
2017-Oct-15 11:12N 47°18' W 002°57'1 5.2
2017-Oct-15 10:58N 47°19' W 002°56'3 4.1
2017-Oct-15 10:21N 47°20' W 002°60'2 5.2
2017-Oct-15 10:00N 47°19' W 003°02'2 3.6
2017-Oct-15 09:30N 47°21' W 003°03'3 4.8
2017-Oct-15 08:59N 47°21' W 003°07'1 2.8
2017-Oct-15 08:29N 47°21' W 003°09'0 0.0
2017-Oct-14 14:39N 47°21' W 003°09'0 0.0
2017-Oct-14 14:30N 47°21' W 003°09'17 4.0
2017-Oct-14 10:20N 47°19' W 002°44'2 4.8
2017-Oct-14 09:57N 47°19' W 002°42'1 3.1
2017-Oct-14 09:30N 47°20' W 002°40'2 3.5
2017-Oct-14 08:50N 47°20' W 002°36'1 3.5
2017-Oct-14 08:29N 47°20' W 002°35'  

Dump ship's entire track history